Time;durP1;ratioP1;P1;durP2;ratioP2;P2;SDS_P1;SDS_P2;PMS_P1;PMS_P2;Temp;Humidity;BMP_temperature;BMP_pressure;BME280_temperature;BME280_humidity;BME280_pressure;Samples;Min_cycle;Max_cycle;Signal;HPM_P1;HPM_P2
2021/06/09 00:01:14;;;;;;;11.15;5.18;;;17.10;99.90;;;;;;4876922;29;20059;-86
2021/06/09 00:03:43;;;;;;;13.25;5.47;;;17.20;99.90;;;;;;4897128;29;20057;-87
2021/06/09 00:06:11;;;;;;;9.57;4.97;;;17.10;99.90;;;;;;4896596;29;20057;-87
2021/06/09 00:08:39;;;;;;;9.13;4.55;;;17.00;99.90;;;;;;4896095;29;20063;-87
2021/06/09 00:11:07;;;;;;;15.98;5.07;;;17.00;99.90;;;;;;4895849;29;20075;-87
2021/06/09 00:13:35;;;;;;;9.38;4.40;;;17.00;99.90;;;;;;4866007;29;20056;-88
2021/06/09 00:16:10;;;;;;;9.52;4.30;;;16.90;99.90;;;;;;4880242;29;20052;-87
2021/06/09 00:18:39;;;;;;;5.65;4.00;;;16.90;99.90;;;;;;4880944;29;20060;-86
2021/06/09 00:21:07;;;;;;;11.68;4.15;;;16.80;99.90;;;;;;4889027;29;20068;-85
2021/06/09 00:23:36;;;;;;;5.22;3.50;;;16.80;99.90;;;;;;4896704;29;20059;-87
2021/06/09 00:26:04;;;;;;;8.88;4.18;;;16.70;99.90;;;;;;4873352;29;20056;-86
2021/06/09 00:28:35;;;;;;;8.63;3.88;;;16.70;99.90;;;;;;4874402;29;20733;-87
2021/06/09 00:31:06;;;;;;;7.10;4.20;;;16.70;99.90;;;;;;4883627;29;20056;-86
2021/06/09 00:33:35;;;;;;;9.15;4.47;;;16.60;99.90;;;;;;4883937;29;20080;-87
2021/06/09 00:36:06;;;;;;;10.70;4.82;;;16.60;99.90;;;;;;4868416;29;20072;-86
2021/06/09 00:38:34;;;;;;;9.63;4.68;;;16.60;99.90;;;;;;4900449;29;20068;-88
2021/06/09 00:41:03;;;;;;;10.80;4.70;;;16.50;99.90;;;;;;4883192;29;20077;-86
2021/06/09 00:43:34;;;;;;;10.02;5.07;;;16.50;99.90;;;;;;4883706;29;20057;-87
2021/06/09 00:46:07;;;;;;;12.60;5.07;;;16.50;99.90;;;;;;4867231;29;20052;-86
2021/06/09 00:48:39;;;;;;;11.85;4.20;;;16.30;99.90;;;;;;4899338;29;20057;-87
2021/06/09 00:51:17;;;;;;;8.15;4.10;;;16.50;99.90;;;;;;4889499;29;20056;-87
2021/06/09 00:53:57;;;;;;;7.20;3.88;;;16.40;99.90;;;;;;4868790;29;20052;-87
2021/06/09 00:56:26;;;;;;;9.05;4.00;;;16.20;99.90;;;;;;4897587;29;20052;-86
2021/06/09 00:58:54;;;;;;;8.05;3.85;;;16.40;99.90;;;;;;4865601;29;20071;-87
2021/06/09 01:01:24;;;;;;;10.90;5.07;;;16.40;99.90;;;;;;4880407;29;20064;-87
2021/06/09 01:03:53;;;;;;;12.02;5.30;;;16.30;99.90;;;;;;4898801;29;20052;-87
2021/06/09 01:06:22;;;;;;;10.85;4.15;;;16.30;99.90;;;;;;4902593;29;20485;-87
2021/06/09 01:08:52;;;;;;;11.10;4.78;;;16.30;99.90;;;;;;4878751;29;20068;-86
2021/06/09 01:11:23;;;;;;;8.48;4.72;;;16.20;99.90;;;;;;4885037;29;20063;-87
2021/06/09 01:13:53;;;;;;;7.43;4.22;;;16.20;99.90;;;;;;4903538;29;20064;-87
2021/06/09 01:16:24;;;;;;;12.15;5.50;;;16.20;99.90;;;;;;4881155;29;20075;-86
2021/06/09 01:18:54;;;;;;;10.57;4.03;;;16.10;99.90;;;;;;4881280;29;20067;-87
2021/06/09 01:21:29;;;;;;;8.85;4.75;;;16.10;99.90;;;;;;4887203;29;20063;-86
2021/06/09 01:23:58;;;;;;;9.77;4.63;;;16.00;99.90;;;;;;4882998;29;20512;-86
2021/06/09 01:26:27;;;;;;;11.30;4.57;;;16.00;99.90;;;;;;4877774;29;20056;-87
2021/06/09 01:28:59;;;;;;;10.38;4.82;;;14.90;99.90;;;;;;4876340;29;20065;-86
2021/06/09 01:31:27;;;;;;;8.20;4.53;;;15.90;99.90;;;;;;4888775;29;20052;-86
2021/06/09 01:34:03;;;;;;;10.35;4.78;;;15.80;99.90;;;;;;4897735;29;20239;-86
2021/06/09 01:36:36;;;;;;;7.45;4.03;;;15.80;99.90;;;;;;4884650;29;20056;-86
2021/06/09 01:39:13;;;;;;;6.15;4.22;;;15.70;99.90;;;;;;4887164;29;20119;-87
2021/06/09 01:41:44;;;;;;;12.98;4.82;;;15.60;99.90;;;;;;4881525;29;20052;-85
2021/06/09 01:44:13;;;;;;;;;;;15.70;99.90;;;;;;4888296;29;20270;-87
2021/06/09 01:46:41;;;;;;;7.03;4.85;;;15.60;99.90;;;;;;4881873;29;19949;-87
2021/06/09 01:49:11;;;;;;;10.43;5.10;;;15.60;99.90;;;;;;4865691;29;20063;-86
2021/06/09 01:51:40;;;;;;;9.90;4.78;;;15.60;99.90;;;;;;4865358;29;20044;-86
2021/06/09 01:54:09;;;;;;;13.10;5.50;;;15.50;99.90;;;;;;4867932;29;20056;-87
2021/06/09 01:56:38;;;;;;;8.40;4.78;;;15.50;99.90;;;;;;4865369;29;20048;-86
2021/06/09 01:59:16;;;;;;;10.13;4.03;;;15.50;99.90;;;;;;4869467;29;20048;-87
2021/06/09 02:01:48;;;;;;;11.75;5.35;;;15.40;99.90;;;;;;4869124;29;20059;-87
2021/06/09 02:04:17;;;;;;;8.35;4.45;;;15.40;99.90;;;;;;4889937;29;20074;-86
2021/06/09 02:06:45;;;;;;;10.13;5.05;;;15.40;99.90;;;;;;4904533;29;20072;-86
2021/06/09 02:09:14;;;;;;;10.98;5.50;;;15.30;99.90;;;;;;4884195;29;20067;-86
2021/06/09 02:11:44;;;;;;;8.73;5.68;;;15.30;99.90;;;;;;4900677;29;20524;-86
2021/06/09 02:14:13;;;;;;;10.77;5.25;;;15.30;99.90;;;;;;4908095;29;20060;-86
2021/06/09 02:16:45;;;;;;;10.90;5.82;;;15.20;99.90;;;;;;4899684;29;20403;-86
2021/06/09 02:19:17;;;;;;;8.50;4.80;;;15.20;99.90;;;;;;4886761;29;20051;-87
2021/06/09 02:21:45;;;;;;;14.68;5.55;;;15.20;99.90;;;;;;4922378;29;20061;-87
2021/06/09 02:24:12;;;;;;;11.98;5.55;;;15.10;99.90;;;;;;4920757;29;20056;-86
2021/06/09 02:26:41;;;;;;;9.70;5.72;;;15.10;99.90;;;;;;4920185;29;20049;-86
2021/06/09 02:29:12;;;;;;;8.77;4.60;;;15.00;99.90;;;;;;4885147;29;20045;-87
2021/06/09 02:31:49;;;;;;;8.30;4.18;;;15.00;99.90;;;;;;4873036;29;20055;-87
2021/06/09 02:34:22;;;;;;;9.80;5.50;;;14.90;99.90;;;;;;4866551;29;20163;-86
2021/06/09 02:36:52;;;;;;;10.05;6.28;;;14.90;99.90;;;;;;4869472;29;20075;-87
2021/06/09 02:39:21;;;;;;;8.93;4.85;;;14.80;99.90;;;;;;4900633;29;20401;-87
2021/06/09 02:41:50;;;;;;;7.53;4.53;;;14.80;99.90;;;;;;4881866;29;20124;-87
2021/06/09 02:44:18;;;;;;;11.45;5.32;;;14.70;99.90;;;;;;4874679;29;20072;-88
2021/06/09 02:46:51;;;;;;;11.63;5.22;;;14.70;99.90;;;;;;4883684;29;20048;-87
2021/06/09 02:49:24;;;;;;;15.25;6.38;;;14.70;99.90;;;;;;4860004;29;20052;-86
2021/06/09 02:52:15;;;;;;;11.80;6.15;;;14.70;99.90;;;;;;4884894;29;20064;-86
2021/06/09 02:55:03;;;;;;;11.98;5.80;;;14.70;99.90;;;;;;4884229;29;20072;-86
2021/06/09 02:57:38;;;;;;;11.57;5.93;;;14.60;99.90;;;;;;4884295;29;20092;-88
2021/06/09 03:00:15;;;;;;;10.77;5.20;;;14.60;99.90;;;;;;4901184;29;20057;-87
2021/06/09 03:03:00;;;;;;;11.73;6.07;;;14.60;99.90;;;;;;4868549;29;20445;-87
2021/06/09 03:05:47;;;;;;;13.25;6.57;;;14.50;99.90;;;;;;4874229;29;20056;-87
2021/06/09 03:08:39;;;;;;;11.13;5.57;;;14.50;99.90;;;;;;4881715;29;20063;-88
2021/06/09 03:11:37;;;;;;;18.13;6.57;;;14.40;99.90;;;;;;4887346;29;20063;-86
2021/06/09 03:17:02;;;;;;;10.77;5.57;;;14.30;99.90;;;;;;4896432;29;20060;-87
2021/06/09 03:19:56;;;;;;;12.15;5.63;;;14.30;99.90;;;;;;4887754;29;20425;-87
2021/06/09 03:22:37;;;;;;;14.63;7.63;;;14.20;99.90;;;;;;4899668;29;20077;-87
2021/06/09 03:25:06;;;;;;;12.32;7.10;;;14.20;99.90;;;;;;4901451;29;20052;-86
2021/06/09 03:27:45;;;;;;;10.18;6.45;;;14.10;99.90;;;;;;4881338;29;20063;-87
2021/06/09 03:30:16;;;;;;;10.32;5.95;;;14.10;99.90;;;;;;4884638;29;20060;-87
2021/06/09 03:32:53;;;;;;;14.32;5.78;;;14.10;99.90;;;;;;4882846;29;20037;-86
2021/06/09 03:35:26;;;;;;;12.27;7.10;;;14.00;99.90;;;;;;4887224;29;20064;-85
2021/06/09 03:37:56;;;;;;;14.50;6.93;;;14.00;99.90;;;;;;4894296;29;20057;-86
2021/06/09 03:40:33;;;;;;;11.95;5.95;;;13.90;99.90;;;;;;4880697;29;20057;-86
2021/06/09 03:43:08;;;;;;;14.00;6.05;;;13.90;99.90;;;;;;4902278;29;20048;-87
2021/06/09 03:45:42;;;;;;;11.45;5.97;;;13.90;99.90;;;;;;4880595;29;20097;-86
2021/06/09 03:48:14;;;;;;;10.43;6.05;;;13.80;99.90;;;;;;4896100;29;20053;-86
2021/06/09 03:50:43;;;;;;;12.55;6.88;;;13.90;99.90;;;;;;4897185;29;20048;-86
2021/06/09 03:53:12;;;;;;;13.80;8.27;;;13.80;99.90;;;;;;4859945;29;20064;-87
2021/06/09 03:55:44;;;;;;;18.75;8.60;;;13.80;99.90;;;;;;4866151;29;20055;-85
2021/06/09 03:58:16;;;;;;;9.32;5.53;;;13.80;99.90;;;;;;4865632;29;20056;-86
2021/06/09 04:00:46;;;;;;;11.70;6.15;;;13.80;99.90;;;;;;4896808;29;20048;-87
2021/06/09 04:03:18;;;;;;;7.90;5.90;;;13.70;99.90;;;;;;4897452;29;20056;-87
2021/06/09 04:05:47;;;;;;;10.38;5.78;;;13.70;99.90;;;;;;4878285;29;20052;-86
2021/06/09 04:08:17;;;;;;;10.60;5.70;;;13.70;99.90;;;;;;4885049;29;20056;-87
2021/06/09 04:10:47;;;;;;;11.90;5.32;;;13.70;99.90;;;;;;4881623;29;20551;-86
2021/06/09 04:13:16;;;;;;;13.68;5.90;;;13.70;99.90;;;;;;4896819;29;20049;-86
2021/06/09 04:15:46;;;;;;;14.63;5.57;;;13.70;99.90;;;;;;4897399;29;20409;-87
2021/06/09 04:18:16;;;;;;;12.65;5.60;;;13.70;99.90;;;;;;4896285;29;20105;-86
2021/06/09 04:20:46;;;;;;;11.35;5.05;;;13.70;99.90;;;;;;4886440;29;20063;-85
2021/06/09 04:23:17;;;;;;;12.60;6.30;;;13.70;99.90;;;;;;4905361;29;20382;-85
2021/06/09 04:25:44;;;;;;;10.25;5.28;;;13.70;99.90;;;;;;4909460;29;20491;-85
2021/06/09 04:28:13;;;;;;;10.15;5.05;;;13.70;99.90;;;;;;4884395;29;20061;-86
2021/06/09 04:30:40;;;;;;;9.48;5.18;;;13.70;99.90;;;;;;4881190;29;20135;-88
2021/06/09 04:33:10;;;;;;;8.98;4.65;;;13.70;99.90;;;;;;4886164;29;20048;-88
2021/06/09 04:35:41;;;;;;;9.02;4.95;;;13.70;99.90;;;;;;4907030;29;20071;-87
2021/06/09 04:38:18;;;;;;;11.60;4.90;;;13.70;99.90;;;;;;4881444;29;20060;-86
2021/06/09 04:40:49;;;;;;;9.57;4.57;;;13.80;99.90;;;;;;4884851;29;20526;-88
2021/06/09 04:43:20;;;;;;;;;;;13.20;99.90;;;;;;4863798;29;20056;-88
2021/06/09 04:45:48;;;;;;;7.75;4.38;;;13.80;99.90;;;;;;4899048;29;19931;-87
2021/06/09 04:48:18;;;;;;;7.13;3.92;;;13.90;99.90;;;;;;4908671;29;20037;-87
2021/06/09 04:50:48;;;;;;;13.02;4.13;;;13.80;99.90;;;;;;4904812;29;20059;-86
2021/06/09 04:53:21;;;;;;;11.52;3.95;;;13.90;99.90;;;;;;4878444;29;20071;-87
2021/06/09 04:55:52;;;;;;;5.35;3.13;;;13.90;99.90;;;;;;4880719;29;20057;-86
2021/06/09 04:58:22;;;;;;;7.43;3.22;;;14.00;99.90;;;;;;4911359;29;20059;-86
2021/06/09 05:00:51;;;;;;;6.43;3.90;;;14.00;99.90;;;;;;4897359;29;20057;-87
2021/06/09 05:03:19;;;;;;;6.95;4.32;;;14.10;99.90;;;;;;4911639;29;20060;-85
2021/06/09 05:05:50;;;;;;;6.03;3.15;;;14.10;99.90;;;;;;4907042;29;20055;-87
2021/06/09 05:08:20;;;;;;;6.07;3.22;;;14.10;99.90;;;;;;4914004;29;20040;-87
2021/06/09 05:10:50;;;;;;;7.80;3.42;;;14.10;99.90;;;;;;4881935;29;20048;-86
2021/06/09 05:13:26;;;;;;;4.90;3.35;;;14.20;99.90;;;;;;4897807;29;20066;-86
2021/06/09 05:16:00;;;;;;;9.52;3.83;;;14.20;99.90;;;;;;4897916;29;20915;-87
2021/06/09 05:18:36;;;;;;;6.55;3.58;;;14.30;99.90;;;;;;4882716;29;20067;-87
2021/06/09 05:21:05;;;;;;;7.63;3.63;;;14.40;99.90;;;;;;4900664;29;20048;-87
2021/06/09 05:23:37;;;;;;;5.25;3.17;;;14.40;99.90;;;;;;4911997;29;20064;-86
2021/06/09 05:26:08;;;;;;;6.15;3.33;;;14.40;99.90;;;;;;4889550;29;20060;-87
2021/06/09 05:28:42;;;;;;;7.45;3.50;;;14.50;99.90;;;;;;4889069;29;20040;-87
2021/06/09 05:31:11;;;;;;;7.90;3.63;;;14.50;99.90;;;;;;4892940;29;20066;-87
2021/06/09 05:33:42;;;;;;;4.78;3.03;;;14.60;99.90;;;;;;4880974;29;20071;-86
2021/06/09 05:36:12;;;;;;;8.10;3.33;;;14.70;99.90;;;;;;4895789;29;20510;-86
2021/06/09 05:38:44;;;;;;;8.93;3.70;;;14.70;99.90;;;;;;4886079;29;20040;-88
2021/06/09 05:41:16;;;;;;;;;;;14.80;99.90;;;;;;4887294;29;20044;-88
2021/06/09 05:43:44;;;;;;;8.27;3.83;;;14.80;99.90;;;;;;4903748;29;19934;-88
2021/06/09 05:46:12;;;;;;;12.13;2.92;;;14.80;99.90;;;;;;4882186;29;20500;-88
2021/06/09 05:48:43;;;;;;;10.00;4.38;;;14.90;99.90;;;;;;4894919;29;20793;-88
2021/06/09 05:51:15;;;;;;;12.77;4.93;;;14.90;99.90;;;;;;4908892;29;20268;-88
2021/06/09 05:53:45;;;;;;;6.63;3.63;;;14.90;99.90;;;;;;4913128;29;20036;-86
2021/06/09 05:56:14;;;;;;;11.00;3.65;;;13.70;99.90;;;;;;4896193;29;20063;-87
2021/06/09 05:58:43;;;;;;;8.55;4.35;;;15.00;99.90;;;;;;4893588;29;20056;-86
2021/06/09 06:01:11;;;;;;;10.35;4.05;;;15.10;99.90;;;;;;4869800;29;20060;-87
2021/06/09 06:03:42;;;;;;;9.23;4.57;;;15.10;99.90;;;;;;4916771;29;20059;-85
2021/06/09 06:06:15;;;;;;;8.98;4.45;;;15.20;99.90;;;;;;4888485;29;20048;-85
2021/06/09 06:08:45;;;;;;;11.30;4.85;;;15.20;99.90;;;;;;4907168;29;20049;-86
2021/06/09 06:11:15;;;;;;;14.75;5.00;;;15.30;99.90;;;;;;4894615;29;20048;-86
2021/06/09 06:13:46;;;;;;;9.63;5.35;;;15.30;99.90;;;;;;4894483;29;20049;-87
2021/06/09 06:16:16;;;;;;;11.30;5.40;;;15.40;99.90;;;;;;4891670;29;20084;-86
2021/06/09 06:18:46;;;;;;;10.13;4.88;;;15.40;99.90;;;;;;4892807;29;20052;-86
2021/06/09 06:21:16;;;;;;;9.13;4.35;;;15.50;99.90;;;;;;4892401;29;20075;-86
2021/06/09 06:23:45;;;;;;;12.15;5.47;;;15.50;99.90;;;;;;4900145;29;20042;-85
2021/06/09 06:26:19;;;;;;;15.52;4.72;;;15.60;99.90;;;;;;4891697;29;20052;-88
2021/06/09 06:28:48;;;;;;;11.25;4.90;;;15.70;99.90;;;;;;4893795;29;20048;-86
2021/06/09 06:31:22;;;;;;;17.92;4.47;;;15.70;99.90;;;;;;4895969;29;20071;-89
2021/06/09 06:33:53;;;;;;;17.90;5.22;;;15.80;99.90;;;;;;4885448;29;20056;-88
2021/06/09 06:36:25;;;;;;;11.37;4.73;;;15.90;99.90;;;;;;4891087;29;20300;-87
2021/06/09 06:38:53;;;;;;;;;;;16.00;99.90;;;;;;4875094;29;20053;-88
2021/06/09 06:41:21;;;;;;;12.70;4.38;;;16.00;99.90;;;;;;4888157;29;19932;-87
2021/06/09 06:43:51;;;;;;;8.88;4.45;;;16.10;99.90;;;;;;4890710;29;20045;-89
2021/06/09 06:46:23;;;;;;;11.07;5.43;;;16.20;99.90;;;;;;4890786;29;20060;-85
2021/06/09 06:48:55;;;;;;;14.57;5.38;;;16.30;99.90;;;;;;4878377;29;20048;-89
2021/06/09 06:51:24;;;;;;;12.65;5.85;;;16.30;99.90;;;;;;4860239;29;20046;-89
2021/06/09 06:53:56;;;;;;;8.50;5.30;;;16.30;99.90;;;;;;4863485;29;20061;-90
2021/06/09 06:56:26;;;;;;;11.48;5.30;;;16.40;99.90;;;;;;4880728;29;20657;-91
2021/06/09 06:58:54;;;;;;;11.85;5.40;;;16.50;99.90;;;;;;4872344;29;20068;-87
2021/06/09 07:01:29;;;;;;;11.05;5.53;;;16.60;99.90;;;;;;4885471;29;20057;-86
2021/06/09 07:03:58;;;;;;;15.43;5.65;;;16.70;99.90;;;;;;4867297;29;20060;-87
2021/06/09 07:06:27;;;;;;;8.57;4.13;;;16.90;99.90;;;;;;4864773;29;20068;-87
2021/06/09 07:09:18;;;;;;;13.80;4.72;;;16.90;99.90;;;;;;4870167;29;20041;-87
2021/06/09 07:12:05;;;;;;;11.05;4.93;;;16.90;99.90;;;;;;4872913;29;20057;-86
2021/06/09 07:14:38;;;;;;;18.60;5.90;;;16.50;99.90;;;;;;4868532;29;20049;-88
2021/06/09 07:17:08;;;;;;;10.90;5.68;;;17.10;99.90;;;;;;4856164;29;20060;-87
2021/06/09 07:19:37;;;;;;;10.93;5.53;;;17.20;99.90;;;;;;4869706;29;20041;-87
2021/06/09 07:22:15;;;;;;;9.88;5.15;;;17.20;99.90;;;;;;4885711;29;20622;-88
2021/06/09 07:24:44;;;;;;;11.27;6.57;;;17.30;99.90;;;;;;4885470;29;20055;-85
2021/06/09 07:27:14;;;;;;;11.27;5.22;;;17.00;99.90;;;;;;4872617;29;20053;-91
2021/06/09 07:29:43;;;;;;;16.10;5.45;;;17.50;99.90;;;;;;4890346;29;20061;-86
2021/06/09 07:32:11;;;;;;;11.98;5.30;;;17.60;99.90;;;;;;4886817;29;20056;-86
2021/06/09 07:34:40;;;;;;;12.00;5.35;;;17.70;99.90;;;;;;4849096;29;20064;-86
2021/06/09 07:37:13;;;;;;;8.70;4.97;;;17.80;99.90;;;;;;4853276;29;20063;-85
2021/06/09 07:39:47;;;;;;;10.73;4.80;;;17.80;99.90;;;;;;4881616;29;20320;-86
2021/06/09 07:42:17;;;;;;;12.73;4.97;;;17.90;99.90;;;;;;4888827;29;20068;-85
2021/06/09 07:45:07;;;;;;;15.70;5.13;;;18.00;99.90;;;;;;4898521;29;20063;-85
2021/06/09 07:47:36;;;;;;;10.40;4.22;;;18.10;99.90;;;;;;4870619;29;20419;-86
2021/06/09 07:50:07;;;;;;;8.60;4.68;;;18.10;99.90;;;;;;4861726;29;20514;-85
2021/06/09 07:52:38;;;;;;;14.18;4.00;;;18.20;99.90;;;;;;4879421;29;20065;-85
2021/06/09 07:55:07;;;;;;;10.10;4.82;;;18.30;99.90;;;;;;4878071;29;20116;-86
2021/06/09 07:57:37;;;;;;;15.68;5.68;;;18.40;99.90;;;;;;4857206;29;20413;-85
2021/06/09 08:00:07;;;;;;;12.02;4.53;;;18.50;99.90;;;;;;4870581;29;20045;-85
2021/06/09 08:02:44;;;;;;;13.05;4.65;;;18.60;99.90;;;;;;4861329;29;20061;-85
2021/06/09 08:05:12;;;;;;;10.05;3.92;;;18.60;99.90;;;;;;4889418;29;20064;-85
2021/06/09 08:07:41;;;;;;;10.80;4.45;;;18.60;99.90;;;;;;4860024;29;20053;-86
2021/06/09 08:10:11;;;;;;;7.15;3.22;;;18.70;99.90;;;;;;4876738;29;20057;-86
2021/06/09 08:12:39;;;;;;;10.30;4.00;;;18.80;99.90;;;;;;4876776;29;20057;-86
2021/06/09 08:15:08;;;;;;;8.90;3.60;;;18.80;99.90;;;;;;4874271;29;20128;-86
2021/06/09 08:17:39;;;;;;;7.70;2.67;;;19.00;99.90;;;;;;4856519;29;20057;-86
2021/06/09 08:20:10;;;;;;;7.72;3.03;;;19.00;99.90;;;;;;4872727;29;20068;-87
2021/06/09 08:22:41;;;;;;;5.57;2.33;;;19.10;99.90;;;;;;4868688;29;20057;-86
2021/06/09 08:25:08;;;;;;;8.88;2.97;;;19.20;99.90;;;;;;4875113;29;20425;-86
2021/06/09 08:27:36;;;;;;;8.82;2.47;;;19.30;99.90;;;;;;4874886;29;20056;-86
2021/06/09 08:30:05;;;;;;;5.47;2.92;;;19.30;99.90;;;;;;4870642;29;20057;-86
2021/06/09 08:32:34;;;;;;;5.72;2.30;;;19.40;99.90;;;;;;4841305;29;20049;-87
2021/06/09 08:35:06;;;;;;;10.55;2.30;;;19.50;99.90;;;;;;4856957;29;20446;-89
2021/06/09 08:37:35;;;;;;;6.80;3.13;;;19.60;99.90;;;;;;4857584;29;20063;-86
2021/06/09 08:40:08;;;;;;;7.38;2.00;;;19.70;98.40;;;;;;4871112;29;20075;-86
2021/06/09 08:42:38;;;;;;;5.28;2.08;;;19.70;97.90;;;;;;4871537;29;20390;-87
2021/06/09 08:45:09;;;;;;;6.57;2.30;;;19.80;97.50;;;;;;4873155;29;20064;-86
2021/06/09 08:47:38;;;;;;;;;;;19.80;97.00;;;;;;4873438;29;20359;-88
2021/06/09 08:50:08;;;;;;;8.18;2.75;;;19.90;96.60;;;;;;4873423;29;19930;-86
2021/06/09 08:52:44;;;;;;;7.40;2.93;;;20.00;97.20;;;;;;4872702;29;20053;-87
2021/06/09 08:55:13;;;;;;;7.03;2.40;;;20.10;96.60;;;;;;4854366;29;20057;-86
2021/06/09 08:57:48;;;;;;;8.13;2.42;;;20.10;97.00;;;;;;4855105;29;20470;-86
2021/06/09 09:00:18;;;;;;;4.32;2.10;;;20.20;96.90;;;;;;4856675;29;20053;-87
2021/06/09 09:02:46;;;;;;;3.22;1.77;;;20.30;96.20;;;;;;4872565;29;20063;-86
2021/06/09 09:05:16;;;;;;;6.70;2.40;;;20.40;96.00;;;;;;4861597;29;20063;-87
2021/06/09 09:07:44;;;;;;;10.98;2.65;;;20.40;95.70;;;;;;4841246;29;20059;-85
2021/06/09 09:10:15;;;;;;;9.15;3.05;;;20.50;95.90;;;;;;4854041;29;20073;-87
2021/06/09 09:12:43;;;;;;;6.00;2.60;;;20.60;95.90;;;;;;4846923;29;20045;-85
2021/06/09 09:15:12;;;;;;;5.18;2.65;;;20.70;95.80;;;;;;4873487;29;20052;-86
2021/06/09 09:18:12;;;;;;;8.82;2.30;;;20.80;95.00;;;;;;4879231;29;20413;-86
2021/06/09 09:20:42;;;;;;;8.30;2.80;;;20.90;93.70;;;;;;4837836;29;20055;-86
2021/06/09 09:23:22;;;;;;;5.32;1.80;;;21.00;94.00;;;;;;4876277;29;20430;-86
2021/06/09 09:25:53;;;;;;;6.32;2.30;;;21.10;93.40;;;;;;4871964;29;20056;-86
2021/06/09 09:28:30;;;;;;;4.78;2.22;;;21.20;93.70;;;;;;4873380;29;20052;-85
2021/06/09 09:31:09;;;;;;;4.72;1.98;;;21.30;92.90;;;;;;4856425;29;20379;-85
2021/06/09 09:33:38;;;;;;;6.38;2.20;;;21.40;92.80;;;;;;4859109;29;20392;-85
2021/06/09 09:36:27;;;;;;;3.78;2.08;;;21.40;92.60;;;;;;4854671;29;20054;-86
2021/06/09 09:38:56;;;;;;;12.70;2.50;;;21.50;92.00;;;;;;4873076;29;20067;-86
2021/06/09 09:41:33;;;;;;;9.25;2.05;;;21.60;91.70;;;;;;4873266;29;20526;-87
2021/06/09 09:44:05;;;;;;;6.00;1.90;;;21.70;87.30;;;;;;4870555;29;20049;-85
2021/06/09 09:46:55;;;;;;;4.70;2.30;;;21.80;89.50;;;;;;4873135;29;20513;-85
2021/06/09 09:49:23;;;;;;;3.03;1.38;;;21.80;88.40;;;;;;4857903;29;20061;-86
2021/06/09 09:51:53;;;;;;;2.25;1.20;;;21.90;87.50;;;;;;4854543;29;20640;-84
2021/06/09 09:54:32;;;;;;;4.57;1.33;;;22.00;84.00;;;;;;4856161;29;20076;-85
2021/06/09 09:57:06;;;;;;;8.50;1.58;;;22.20;78.80;;;;;;4857475;29;20049;-85
2021/06/09 09:59:35;;;;;;;5.97;1.10;;;22.30;76.90;;;;;;4872813;29;20065;-86
2021/06/09 10:02:12;;;;;;;3.60;1.45;;;22.30;73.20;;;;;;4871367;29;20406;-87
2021/06/09 10:04:40;;;;;;;3.00;1.40;;;22.50;69.30;;;;;;4855243;29;20072;-82
2021/06/09 10:07:08;;;;;;;3.47;1.27;;;22.50;68.20;;;;;;4868905;29;20057;-84
2021/06/09 10:09:43;;;;;;;1.55;1.10;;;22.60;68.10;;;;;;4855890;29;20049;-85
2021/06/09 10:12:13;;;;;;;5.57;1.45;;;22.70;67.60;;;;;;4855503;29;20068;-84
2021/06/09 10:14:52;;;;;;;2.33;1.10;;;22.80;67.60;;;;;;4877242;29;20049;-84
2021/06/09 10:17:26;;;;;;;1.83;1.45;;;22.80;65.50;;;;;;4861350;29;20049;-85
2021/06/09 10:19:57;;;;;;;2.35;1.25;;;22.90;65.10;;;;;;4840848;29;20054;-86
2021/06/09 10:22:34;;;;;;;3.65;0.93;;;22.90;65.60;;;;;;4875558;29;20072;-83
2021/06/09 10:25:02;;;;;;;4.55;1.40;;;23.00;64.60;;;;;;4877293;29;20057;-85
2021/06/09 10:27:39;;;;;;;1.98;1.40;;;23.00;64.30;;;;;;4875229;29;20056;-84
2021/06/09 10:30:19;;;;;;;2.10;1.30;;;23.10;61.40;;;;;;4874629;29;20048;-84
2021/06/09 10:32:53;;;;;;;4.05;0.93;;;23.30;60.80;;;;;;4873662;29;20059;-84
2021/06/09 10:35:25;;;;;;;4.72;2.45;;;23.40;62.50;;;;;;4886923;29;20068;-85
2021/06/09 10:37:54;;;;;;;2.67;1.10;;;23.50;60.90;;;;;;4893313;29;20075;-83
2021/06/09 10:40:26;;;;;;;3.20;1.08;;;23.60;59.60;;;;;;4894944;29;20056;-84
2021/06/09 10:43:00;;;;;;;2.90;1.00;;;23.70;58.20;;;;;;4863377;29;20445;-85
2021/06/09 10:45:29;;;;;;;8.35;1.00;;;23.70;55.20;;;;;;4892889;29;20259;-85
2021/06/09 10:48:00;;;;;;;6.13;1.20;;;23.70;54.20;;;;;;4870328;29;20067;-84
2021/06/09 10:50:28;;;;;;;;;;;23.70;54.60;;;;;;4893376;29;20060;-83
2021/06/09 10:52:56;;;;;;;1.35;1.00;;;23.70;53.50;;;;;;4892438;29;20375;-82
2021/06/09 10:55:27;;;;;;;2.55;1.42;;;23.80;54.00;;;;;;4875148;29;20676;-82
2021/06/09 10:57:55;;;;;;;1.38;1.10;;;23.80;53.70;;;;;;4906683;29;20056;-81
2021/06/09 11:00:23;;;;;;;2.10;1.10;;;24.00;54.20;;;;;;4912010;29;20089;-85
2021/06/09 11:02:55;;;;;;;4.07;1.30;;;24.00;53.60;;;;;;4903767;29;20445;-83
2021/06/09 11:05:27;;;;;;;3.42;0.90;;;24.20;53.70;;;;;;4886293;29;20053;-83
2021/06/09 11:07:58;;;;;;;8.07;0.80;;;24.30;52.30;;;;;;4877124;29;20049;-86
2021/06/09 11:10:37;;;;;;;6.97;1.30;;;24.30;52.10;;;;;;4845780;29;20048;-84
2021/06/09 11:13:06;;;;;;;3.40;1.05;;;24.30;52.90;;;;;;4878882;29;20056;-86
2021/06/09 11:15:34;;;;;;;2.50;1.27;;;24.30;51.80;;;;;;4880577;29;20052;-87
2021/06/09 11:18:14;;;;;;;5.45;0.70;;;24.40;51.50;;;;;;4862126;29;20060;-86
2021/06/09 11:20:47;;;;;;;3.85;1.27;;;24.40;51.10;;;;;;4864490;29;20400;-86
2021/06/09 11:23:29;;;;;;;2.47;0.80;;;24.50;50.60;;;;;;4892926;29;20049;-86
2021/06/09 11:26:02;;;;;;;2.05;1.50;;;24.50;52.20;;;;;;4885221;29;20052;-87
2021/06/09 11:28:38;;;;;;;2.20;1.30;;;24.60;53.10;;;;;;4892921;29;20063;-84
2021/06/09 11:31:21;;;;;;;2.67;1.17;;;24.60;53.10;;;;;;4873080;29;20041;-86
2021/06/09 11:33:56;;;;;;;;;;;24.70;54.00;;;;;;4894766;29;20052;-87
2021/06/09 11:36:31;;;;;;;3.13;1.00;;;24.80;53.90;;;;;;4886288;29;20380;-83
2021/06/09 11:39:05;;;;;;;3.30;1.48;;;24.90;53.40;;;;;;4878951;29;20099;-85
2021/06/09 11:41:41;;;;;;;3.83;1.60;;;24.90;53.10;;;;;;4891447;29;20059;-84
2021/06/09 11:44:44;;;;;;;7.00;1.40;;;24.90;53.30;;;;;;4872217;29;20045;-86
2021/06/09 11:47:25;;;;;;;5.32;1.17;;;25.00;54.30;;;;;;4877739;29;20823;-88
2021/06/09 11:50:15;;;;;;;3.78;1.38;;;25.00;54.70;;;;;;4894654;29;20063;-91
2021/06/09 11:53:12;;;;;;;1.50;0.95;;;25.00;54.70;;;;;;4891244;29;20052;-84
2021/06/09 11:55:41;;;;;;;4.88;1.40;;;25.10;54.90;;;;;;4893790;29;20052;-90
2021/06/09 11:58:12;;;;;;;7.68;1.58;;;25.20;55.50;;;;;;4893122;29;20762;-89
2021/06/09 12:00:59;;;;;;;3.00;1.20;;;25.30;55.60;;;;;;4875412;29;20894;-87
2021/06/09 12:03:28;;;;;;;4.57;1.33;;;25.50;54.80;;;;;;4876511;29;20048;-88
2021/06/09 12:06:15;;;;;;;5.45;0.93;;;25.60;54.50;;;;;;4889792;29;20568;-88
2021/06/09 12:08:43;;;;;;;2.20;1.20;;;25.70;54.50;;;;;;4887178;29;20044;-88
2021/06/09 12:11:12;;;;;;;4.32;2.60;;;25.80;56.10;;;;;;4862041;29;20513;-88
2021/06/09 12:13:42;;;;;;;5.87;2.10;;;26.00;56.70;;;;;;4883262;29;20556;-86
2021/06/09 12:16:17;;;;;;;1.17;0.93;;;26.10;55.60;;;;;;4860881;29;20307;-88
2021/06/09 12:18:47;;;;;;;3.60;1.30;;;26.10;53.90;;;;;;4874512;29;20483;-88
2021/06/09 12:21:18;;;;;;;4.75;1.38;;;26.20;54.80;;;;;;4854080;29;20083;-87
2021/06/09 12:23:59;;;;;;;1.52;0.95;;;25.80;54.30;;;;;;4893423;29;20052;-87
2021/06/09 12:26:27;;;;;;;;;;;26.30;53.90;;;;;;4891277;29;20505;-86
2021/06/09 12:29:03;;;;;;;1.88;1.33;;;26.30;54.40;;;;;;4893954;29;19927;-89
2021/06/09 12:31:36;;;;;;;6.38;0.90;;;26.40;55.20;;;;;;4888248;29;20048;-93
2021/06/09 12:34:07;;;;;;;4.28;1.38;;;26.60;55.60;;;;;;4910246;29;20300;-88
2021/06/09 12:36:52;;;;;;;2.80;1.27;;;26.70;55.60;;;;;;4880207;29;20048;-88
2021/06/09 12:39:23;;;;;;;3.78;1.10;;;26.90;54.40;;;;;;4913731;29;20063;-85
2021/06/09 12:41:51;;;;;;;2.90;0.90;;;27.10;54.70;;;;;;4877015;29;21032;-87
2021/06/09 12:44:19;;;;;;;3.78;1.38;;;27.20;53.90;;;;;;4886181;29;20056;-85
2021/06/09 12:46:57;;;;;;;3.80;0.90;;;27.30;53.30;;;;;;4891796;29;20515;-87
2021/06/09 12:49:33;;;;;;;7.05;1.05;;;27.30;51.30;;;;;;4895988;29;20055;-86
2021/06/09 12:52:04;;;;;;;2.83;2.03;;;27.40;51.60;;;;;;4892066;29;20072;-86
2021/06/09 12:54:32;;;;;;;4.30;1.02;;;27.40;51.20;;;;;;4874788;29;20052;-84
2021/06/09 12:57:04;;;;;;;2.10;1.20;;;27.40;50.50;;;;;;4895240;29;20060;-86
2021/06/09 12:59:35;;;;;;;1.38;0.63;;;27.40;50.30;;;;;;4895590;29;20064;-84
2021/06/09 13:02:05;;;;;;;7.75;1.27;;;27.50;50.00;;;;;;4876417;29;20122;-85
2021/06/09 13:04:35;;;;;;;4.57;0.90;;;27.60;50.70;;;;;;4865814;29;20490;-83
2021/06/09 13:07:04;;;;;;;3.47;1.25;;;27.70;51.60;;;;;;4889567;29;20056;-85
2021/06/09 13:09:32;;;;;;;2.38;0.90;;;27.80;50.60;;;;;;4892736;29;20060;-81
2021/06/09 13:12:02;;;;;;;4.20;1.60;;;28.00;51.00;;;;;;4873435;29;20068;-83
2021/06/09 13:14:32;;;;;;;6.32;0.93;;;28.10;51.40;;;;;;4874556;29;20517;-83